sensor_id;sensor_type;location;lat;lon;timestamp;P1;durP1;ratioP1;P2;durP2;ratioP2
47251;SDS011;32991;51.374;11.586;2023-07-08T00:02:12;5.38;;;3.35;;
47251;SDS011;32991;51.374;11.586;2023-07-08T00:04:39;7.13;;;3.30;;
47251;SDS011;32991;51.374;11.586;2023-07-08T00:07:09;3.92;;;2.85;;
47251;SDS011;32991;51.374;11.586;2023-07-08T00:09:37;4.13;;;3.20;;
47251;SDS011;32991;51.374;11.586;2023-07-08T00:12:08;6.38;;;3.20;;
47251;SDS011;32991;51.374;11.586;2023-07-08T00:14:36;9.15;;;3.38;;
47251;SDS011;32991;51.374;11.586;2023-07-08T00:17:02;3.70;;;2.95;;
47251;SDS011;32991;51.374;11.586;2023-07-08T00:19:29;5.47;;;3.08;;
47251;SDS011;32991;51.374;11.586;2023-07-08T00:21:55;7.15;;;3.35;;
47251;SDS011;32991;51.374;11.586;2023-07-08T00:24:22;8.25;;;3.28;;
47251;SDS011;32991;51.374;11.586;2023-07-08T00:26:49;5.43;;;3.08;;
47251;SDS011;32991;51.374;11.586;2023-07-08T00:29:15;4.32;;;3.10;;
47251;SDS011;32991;51.374;11.586;2023-07-08T00:31:42;4.60;;;3.40;;
47251;SDS011;32991;51.374;11.586;2023-07-08T00:34:09;3.80;;;3.03;;
47251;SDS011;32991;51.374;11.586;2023-07-08T00:36:37;3.88;;;3.10;;
47251;SDS011;32991;51.374;11.586;2023-07-08T00:39:07;6.13;;;3.15;;
47251;SDS011;32991;51.374;11.586;2023-07-08T00:41:38;3.67;;;2.90;;
47251;SDS011;32991;51.374;11.586;2023-07-08T00:44:08;3.78;;;3.10;;
47251;SDS011;32991;51.374;11.586;2023-07-08T00:46:38;6.85;;;3.63;;
47251;SDS011;32991;51.374;11.586;2023-07-08T00:49:36;4.47;;;3.20;;
47251;SDS011;32991;51.374;11.586;2023-07-08T00:52:16;5.07;;;3.00;;
47251;SDS011;32991;51.374;11.586;2023-07-08T00:54:45;4.65;;;3.22;;
47251;SDS011;32991;51.374;11.586;2023-07-08T00:57:12;4.40;;;3.00;;
47251;SDS011;32991;51.374;11.586;2023-07-08T00:59:40;6.93;;;3.38;;
47251;SDS011;32991;51.374;11.586;2023-07-08T01:02:11;3.33;;;3.08;;
47251;SDS011;32991;51.374;11.586;2023-07-08T01:04:56;4.50;;;3.33;;
47251;SDS011;32991;51.374;11.586;2023-07-08T01:07:25;5.32;;;3.55;;
47251;SDS011;32991;51.374;11.586;2023-07-08T01:10:02;7.60;;;3.80;;
47251;SDS011;32991;51.374;11.586;2023-07-08T01:12:32;4.28;;;3.10;;
47251;SDS011;32991;51.374;11.586;2023-07-08T01:15:02;7.60;;;3.72;;
47251;SDS011;32991;51.374;11.586;2023-07-08T01:17:29;6.88;;;3.63;;
47251;SDS011;32991;51.374;11.586;2023-07-08T01:20:00;8.07;;;3.40;;
47251;SDS011;32991;51.374;11.586;2023-07-08T01:22:36;4.32;;;3.42;;
47251;SDS011;32991;51.374;11.586;2023-07-08T01:25:03;5.95;;;3.58;;
47251;SDS011;32991;51.374;11.586;2023-07-08T01:27:31;5.63;;;3.70;;
47251;SDS011;32991;51.374;11.586;2023-07-08T01:30:00;4.50;;;4.10;;
47251;SDS011;32991;51.374;11.586;2023-07-08T01:32:27;4.65;;;3.70;;
47251;SDS011;32991;51.374;11.586;2023-07-08T01:34:55;4.53;;;3.50;;
47251;SDS011;32991;51.374;11.586;2023-07-08T01:37:29;4.22;;;3.20;;
47251;SDS011;32991;51.374;11.586;2023-07-08T01:39:58;3.78;;;3.42;;
47251;SDS011;32991;51.374;11.586;2023-07-08T01:42:40;4.80;;;3.40;;
47251;SDS011;32991;51.374;11.586;2023-07-08T01:45:11;6.13;;;3.72;;
47251;SDS011;32991;51.374;11.586;2023-07-08T01:47:39;13.55;;;3.95;;
47251;SDS011;32991;51.374;11.586;2023-07-08T01:50:07;5.85;;;3.78;;
47251;SDS011;32991;51.374;11.586;2023-07-08T01:52:35;5.65;;;3.60;;
47251;SDS011;32991;51.374;11.586;2023-07-08T01:55:03;4.22;;;3.40;;
47251;SDS011;32991;51.374;11.586;2023-07-08T01:57:30;7.88;;;3.45;;
47251;SDS011;32991;51.374;11.586;2023-07-08T01:59:56;7.80;;;3.75;;
47251;SDS011;32991;51.374;11.586;2023-07-08T02:02:24;4.57;;;3.60;;
47251;SDS011;32991;51.374;11.586;2023-07-08T02:04:51;5.00;;;3.30;;
47251;SDS011;32991;51.374;11.586;2023-07-08T02:07:17;6.88;;;3.50;;
47251;SDS011;32991;51.374;11.586;2023-07-08T02:09:44;5.78;;;3.75;;
47251;SDS011;32991;51.374;11.586;2023-07-08T02:12:11;4.75;;;3.90;;
47251;SDS011;32991;51.374;11.586;2023-07-08T02:14:38;5.80;;;3.67;;
47251;SDS011;32991;51.374;11.586;2023-07-08T02:17:05;5.13;;;3.63;;
47251;SDS011;32991;51.374;11.586;2023-07-08T02:19:31;8.18;;;4.05;;
47251;SDS011;32991;51.374;11.586;2023-07-08T02:21:58;7.43;;;3.83;;
47251;SDS011;32991;51.374;11.586;2023-07-08T02:24:25;4.07;;;3.67;;
47251;SDS011;32991;51.374;11.586;2023-07-08T02:26:51;4.65;;;3.50;;
47251;SDS011;32991;51.374;11.586;2023-07-08T02:29:19;5.95;;;3.80;;
47251;SDS011;32991;51.374;11.586;2023-07-08T02:31:45;9.93;;;4.43;;
47251;SDS011;32991;51.374;11.586;2023-07-08T02:34:12;6.10;;;4.03;;
47251;SDS011;32991;51.374;11.586;2023-07-08T02:36:40;4.95;;;4.22;;
47251;SDS011;32991;51.374;11.586;2023-07-08T02:39:06;6.97;;;3.83;;
47251;SDS011;32991;51.374;11.586;2023-07-08T02:41:33;5.25;;;3.80;;
47251;SDS011;32991;51.374;11.586;2023-07-08T02:44:00;6.45;;;4.00;;
47251;SDS011;32991;51.374;11.586;2023-07-08T02:46:26;6.05;;;3.55;;
47251;SDS011;32991;51.374;11.586;2023-07-08T02:48:53;6.45;;;3.67;;
47251;SDS011;32991;51.374;11.586;2023-07-08T02:51:20;8.32;;;4.07;;
47251;SDS011;32991;51.374;11.586;2023-07-08T02:53:47;4.63;;;3.90;;
47251;SDS011;32991;51.374;11.586;2023-07-08T02:56:15;4.90;;;3.92;;
47251;SDS011;32991;51.374;11.586;2023-07-08T02:58:42;7.32;;;4.20;;
47251;SDS011;32991;51.374;11.586;2023-07-08T03:01:08;8.73;;;4.30;;
47251;SDS011;32991;51.374;11.586;2023-07-08T03:03:35;6.55;;;3.75;;
47251;SDS011;32991;51.374;11.586;2023-07-08T03:06:03;5.90;;;3.72;;
47251;SDS011;32991;51.374;11.586;2023-07-08T03:08:31;5.07;;;4.00;;
47251;SDS011;32991;51.374;11.586;2023-07-08T03:10:59;6.30;;;3.97;;
47251;SDS011;32991;51.374;11.586;2023-07-08T03:13:28;4.60;;;3.80;;
47251;SDS011;32991;51.374;11.586;2023-07-08T03:15:56;6.85;;;3.83;;
47251;SDS011;32991;51.374;11.586;2023-07-08T03:18:23;4.00;;;3.60;;
47251;SDS011;32991;51.374;11.586;2023-07-08T03:20:52;6.75;;;3.95;;
47251;SDS011;32991;51.374;11.586;2023-07-08T03:23:23;5.45;;;3.83;;
47251;SDS011;32991;51.374;11.586;2023-07-08T03:25:51;5.55;;;4.13;;
47251;SDS011;32991;51.374;11.586;2023-07-08T03:28:19;6.75;;;4.57;;
47251;SDS011;32991;51.374;11.586;2023-07-08T03:30:50;5.78;;;3.80;;
47251;SDS011;32991;51.374;11.586;2023-07-08T03:33:18;7.22;;;4.00;;
47251;SDS011;32991;51.374;11.586;2023-07-08T03:35:45;5.43;;;4.20;;
47251;SDS011;32991;51.374;11.586;2023-07-08T03:38:13;5.30;;;3.92;;
47251;SDS011;32991;51.374;11.586;2023-07-08T03:40:39;4.38;;;3.92;;
47251;SDS011;32991;51.374;11.586;2023-07-08T03:43:07;6.57;;;4.32;;
47251;SDS011;32991;51.374;11.586;2023-07-08T03:45:35;7.78;;;4.38;;
47251;SDS011;32991;51.374;11.586;2023-07-08T03:48:02;7.90;;;4.18;;
47251;SDS011;32991;51.374;11.586;2023-07-08T03:50:30;5.13;;;3.90;;
47251;SDS011;32991;51.374;11.586;2023-07-08T03:52:57;4.57;;;3.78;;
47251;SDS011;32991;51.374;11.586;2023-07-08T03:55:27;4.75;;;3.47;;
47251;SDS011;32991;51.374;11.586;2023-07-08T03:57:56;6.88;;;4.20;;
47251;SDS011;32991;51.374;11.586;2023-07-08T04:00:24;7.13;;;4.57;;
47251;SDS011;32991;51.374;11.586;2023-07-08T04:02:51;5.05;;;3.95;;
47251;SDS011;32991;51.374;11.586;2023-07-08T04:05:21;4.55;;;3.85;;
47251;SDS011;32991;51.374;11.586;2023-07-08T04:07:49;6.07;;;3.95;;
47251;SDS011;32991;51.374;11.586;2023-07-08T04:10:15;5.97;;;4.13;;
47251;SDS011;32991;51.374;11.586;2023-07-08T04:12:43;6.45;;;3.88;;
47251;SDS011;32991;51.374;11.586;2023-07-08T04:15:10;5.53;;;4.57;;
47251;SDS011;32991;51.374;11.586;2023-07-08T04:17:37;7.00;;;3.90;;
47251;SDS011;32991;51.374;11.586;2023-07-08T04:20:08;6.75;;;4.10;;
47251;SDS011;32991;51.374;11.586;2023-07-08T04:22:37;4.72;;;4.30;;
47251;SDS011;32991;51.374;11.586;2023-07-08T04:25:03;6.25;;;4.65;;
47251;SDS011;32991;51.374;11.586;2023-07-08T04:27:30;6.22;;;4.45;;
47251;SDS011;32991;51.374;11.586;2023-07-08T04:29:57;7.20;;;4.50;;
47251;SDS011;32991;51.374;11.586;2023-07-08T04:32:24;7.60;;;4.13;;
47251;SDS011;32991;51.374;11.586;2023-07-08T04:34:51;6.55;;;4.35;;
47251;SDS011;32991;51.374;11.586;2023-07-08T04:37:18;5.78;;;4.05;;
47251;SDS011;32991;51.374;11.586;2023-07-08T04:39:46;8.02;;;4.68;;
47251;SDS011;32991;51.374;11.586;2023-07-08T04:42:13;4.60;;;4.20;;
47251;SDS011;32991;51.374;11.586;2023-07-08T04:44:41;9.13;;;4.03;;
47251;SDS011;32991;51.374;11.586;2023-07-08T04:47:08;4.70;;;4.20;;
47251;SDS011;32991;51.374;11.586;2023-07-08T04:49:35;10.48;;;4.53;;
47251;SDS011;32991;51.374;11.586;2023-07-08T04:52:02;9.60;;;4.65;;
47251;SDS011;32991;51.374;11.586;2023-07-08T04:54:28;7.03;;;3.75;;
47251;SDS011;32991;51.374;11.586;2023-07-08T04:56:55;5.57;;;4.38;;
47251;SDS011;32991;51.374;11.586;2023-07-08T04:59:23;9.52;;;4.00;;
47251;SDS011;32991;51.374;11.586;2023-07-08T05:01:50;7.35;;;3.90;;
47251;SDS011;32991;51.374;11.586;2023-07-08T05:04:19;7.20;;;4.22;;
47251;SDS011;32991;51.374;11.586;2023-07-08T05:06:47;8.23;;;3.95;;
47251;SDS011;32991;51.374;11.586;2023-07-08T05:09:14;12.57;;;4.07;;
47251;SDS011;32991;51.374;11.586;2023-07-08T05:11:43;6.93;;;3.92;;
47251;SDS011;32991;51.374;11.586;2023-07-08T05:14:11;6.45;;;3.95;;
47251;SDS011;32991;51.374;11.586;2023-07-08T05:16:38;5.80;;;4.20;;
47251;SDS011;32991;51.374;11.586;2023-07-08T05:19:07;9.10;;;4.20;;
47251;SDS011;32991;51.374;11.586;2023-07-08T05:21:33;6.03;;;3.83;;
47251;SDS011;32991;51.374;11.586;2023-07-08T05:24:01;8.02;;;4.18;;
47251;SDS011;32991;51.374;11.586;2023-07-08T05:26:29;5.38;;;4.00;;
47251;SDS011;32991;51.374;11.586;2023-07-08T05:28:56;7.15;;;4.00;;
47251;SDS011;32991;51.374;11.586;2023-07-08T05:31:23;4.65;;;3.70;;
47251;SDS011;32991;51.374;11.586;2023-07-08T05:34:09;5.82;;;3.88;;
47251;SDS011;32991;51.374;11.586;2023-07-08T05:36:36;4.95;;;4.10;;
47251;SDS011;32991;51.374;11.586;2023-07-08T05:39:02;6.30;;;4.13;;
47251;SDS011;32991;51.374;11.586;2023-07-08T05:41:29;8.32;;;4.13;;
47251;SDS011;32991;51.374;11.586;2023-07-08T05:43:55;6.97;;;4.18;;
47251;SDS011;32991;51.374;11.586;2023-07-08T05:46:22;5.72;;;3.97;;
47251;SDS011;32991;51.374;11.586;2023-07-08T05:48:48;7.38;;;4.22;;
47251;SDS011;32991;51.374;11.586;2023-07-08T05:51:17;7.15;;;3.80;;
47251;SDS011;32991;51.374;11.586;2023-07-08T05:53:44;6.18;;;4.03;;
47251;SDS011;32991;51.374;11.586;2023-07-08T05:56:10;5.28;;;3.90;;
47251;SDS011;32991;51.374;11.586;2023-07-08T05:58:37;7.25;;;4.50;;
47251;SDS011;32991;51.374;11.586;2023-07-08T06:01:03;7.00;;;4.20;;
47251;SDS011;32991;51.374;11.586;2023-07-08T06:03:31;8.50;;;4.00;;
47251;SDS011;32991;51.374;11.586;2023-07-08T06:05:57;4.80;;;3.92;;
47251;SDS011;32991;51.374;11.586;2023-07-08T06:08:24;5.68;;;3.95;;
47251;SDS011;32991;51.374;11.586;2023-07-08T06:10:50;4.75;;;4.18;;
47251;SDS011;32991;51.374;11.586;2023-07-08T06:13:17;7.25;;;4.00;;
47251;SDS011;32991;51.374;11.586;2023-07-08T06:15:44;10.77;;;4.13;;
47251;SDS011;32991;51.374;11.586;2023-07-08T06:18:11;15.65;;;4.65;;
47251;SDS011;32991;51.374;11.586;2023-07-08T06:20:37;6.32;;;3.92;;
47251;SDS011;32991;51.374;11.586;2023-07-08T06:23:04;6.15;;;3.58;;
47251;SDS011;32991;51.374;11.586;2023-07-08T06:25:31;4.45;;;3.17;;
47251;SDS011;32991;51.374;11.586;2023-07-08T06:27:58;7.28;;;3.85;;
47251;SDS011;32991;51.374;11.586;2023-07-08T06:30:24;4.43;;;3.67;;
47251;SDS011;32991;51.374;11.586;2023-07-08T06:32:51;6.57;;;3.90;;
47251;SDS011;32991;51.374;11.586;2023-07-08T06:35:17;6.85;;;3.60;;
47251;SDS011;32991;51.374;11.586;2023-07-08T06:37:44;4.75;;;3.47;;
47251;SDS011;32991;51.374;11.586;2023-07-08T06:40:11;5.72;;;3.70;;
47251;SDS011;32991;51.374;11.586;2023-07-08T06:42:38;5.93;;;3.90;;
47251;SDS011;32991;51.374;11.586;2023-07-08T06:45:25;8.48;;;4.18;;
47251;SDS011;32991;51.374;11.586;2023-07-08T06:47:52;4.40;;;3.60;;
47251;SDS011;32991;51.374;11.586;2023-07-08T06:50:18;4.22;;;3.83;;
47251;SDS011;32991;51.374;11.586;2023-07-08T06:52:45;5.25;;;4.13;;
47251;SDS011;32991;51.374;11.586;2023-07-08T06:55:11;6.32;;;3.65;;
47251;SDS011;32991;51.374;11.586;2023-07-08T06:57:39;5.15;;;4.18;;
47251;SDS011;32991;51.374;11.586;2023-07-08T07:00:09;6.45;;;3.53;;
47251;SDS011;32991;51.374;11.586;2023-07-08T07:02:38;4.82;;;3.20;;
47251;SDS011;32991;51.374;11.586;2023-07-08T07:05:05;8.02;;;4.07;;
47251;SDS011;32991;51.374;11.586;2023-07-08T07:07:31;5.47;;;3.58;;
47251;SDS011;32991;51.374;11.586;2023-07-08T07:09:58;6.97;;;3.65;;
47251;SDS011;32991;51.374;11.586;2023-07-08T07:12:25;6.22;;;4.00;;
47251;SDS011;32991;51.374;11.586;2023-07-08T07:14:52;4.97;;;3.50;;
47251;SDS011;32991;51.374;11.586;2023-07-08T07:17:23;5.85;;;3.78;;
47251;SDS011;32991;51.374;11.586;2023-07-08T07:19:51;4.18;;;3.67;;
47251;SDS011;32991;51.374;11.586;2023-07-08T07:22:17;5.63;;;3.78;;
47251;SDS011;32991;51.374;11.586;2023-07-08T07:24:44;6.90;;;3.88;;
47251;SDS011;32991;51.374;11.586;2023-07-08T07:27:11;9.05;;;4.28;;
47251;SDS011;32991;51.374;11.586;2023-07-08T07:29:42;7.53;;;4.03;;
47251;SDS011;32991;51.374;11.586;2023-07-08T07:32:09;5.35;;;3.42;;
47251;SDS011;32991;51.374;11.586;2023-07-08T07:34:37;6.68;;;3.53;;
47251;SDS011;32991;51.374;11.586;2023-07-08T07:37:05;4.90;;;3.60;;
47251;SDS011;32991;51.374;11.586;2023-07-08T07:39:32;5.28;;;3.50;;
47251;SDS011;32991;51.374;11.586;2023-07-08T07:41:59;6.47;;;3.33;;
47251;SDS011;32991;51.374;11.586;2023-07-08T07:44:25;5.82;;;3.80;;
47251;SDS011;32991;51.374;11.586;2023-07-08T07:46:52;4.82;;;3.88;;
47251;SDS011;32991;51.374;11.586;2023-07-08T07:49:19;6.13;;;3.53;;
47251;SDS011;32991;51.374;11.586;2023-07-08T07:51:47;3.30;;;3.00;;
47251;SDS011;32991;51.374;11.586;2023-07-08T07:54:14;5.50;;;4.03;;
47251;SDS011;32991;51.374;11.586;2023-07-08T07:56:41;9.73;;;3.67;;
47251;SDS011;32991;51.374;11.586;2023-07-08T07:59:08;5.68;;;3.83;;
47251;SDS011;32991;51.374;11.586;2023-07-08T08:01:34;10.07;;;3.83;;
47251;SDS011;32991;51.374;11.586;2023-07-08T08:04:01;4.20;;;3.20;;
47251;SDS011;32991;51.374;11.586;2023-07-08T08:06:28;4.95;;;3.17;;
47251;SDS011;32991;51.374;11.586;2023-07-08T08:08:54;5.15;;;3.63;;
47251;SDS011;32991;51.374;11.586;2023-07-08T08:11:22;13.60;;;4.38;;
47251;SDS011;32991;51.374;11.586;2023-07-08T08:13:52;6.45;;;3.70;;
47251;SDS011;32991;51.374;11.586;2023-07-08T08:16:19;5.97;;;3.53;;
47251;SDS011;32991;51.374;11.586;2023-07-08T08:18:46;5.28;;;3.40;;
47251;SDS011;32991;51.374;11.586;2023-07-08T08:21:13;4.93;;;3.40;;
47251;SDS011;32991;51.374;11.586;2023-07-08T09:00:58;4.47;;;3.20;;
47251;SDS011;32991;51.374;11.586;2023-07-08T09:03:32;7.18;;;3.47;;
47251;SDS011;32991;51.374;11.586;2023-07-08T09:06:11;3.95;;;2.92;;
47251;SDS011;32991;51.374;11.586;2023-07-08T09:08:44;7.65;;;3.15;;
47251;SDS011;32991;51.374;11.586;2023-07-08T09:13:56;4.03;;;3.05;;
47251;SDS011;32991;51.374;11.586;2023-07-08T09:16:39;4.13;;;3.28;;
47251;SDS011;32991;51.374;11.586;2023-07-08T09:22:11;4.25;;;3.20;;
47251;SDS011;32991;51.374;11.586;2023-07-08T09:27:13;3.70;;;2.88;;
47251;SDS011;32991;51.374;11.586;2023-07-08T09:29:40;3.45;;;3.03;;
47251;SDS011;32991;51.374;11.586;2023-07-08T09:34:45;4.05;;;2.95;;
47251;SDS011;32991;51.374;11.586;2023-07-08T09:37:29;3.53;;;2.90;;
47251;SDS011;32991;51.374;11.586;2023-07-08T09:39:58;3.38;;;2.65;;
47251;SDS011;32991;51.374;11.586;2023-07-08T09:42:27;5.78;;;3.10;;
47251;SDS011;32991;51.374;11.586;2023-07-08T09:47:28;3.10;;;2.80;;
47251;SDS011;32991;51.374;11.586;2023-07-08T09:49:59;4.38;;;2.80;;
47251;SDS011;32991;51.374;11.586;2023-07-08T09:52:28;4.20;;;2.75;;
47251;SDS011;32991;51.374;11.586;2023-07-08T09:54:55;6.32;;;2.60;;
47251;SDS011;32991;51.374;11.586;2023-07-08T09:57:28;3.63;;;2.28;;
47251;SDS011;32991;51.374;11.586;2023-07-08T09:59:57;3.65;;;3.03;;
47251;SDS011;32991;51.374;11.586;2023-07-08T10:05:24;4.55;;;2.60;;
47251;SDS011;32991;51.374;11.586;2023-07-08T10:07:54;4.47;;;2.70;;
47251;SDS011;32991;51.374;11.586;2023-07-08T10:10:32;4.72;;;2.55;;
47251;SDS011;32991;51.374;11.586;2023-07-08T10:13:02;3.83;;;2.72;;
47251;SDS011;32991;51.374;11.586;2023-07-08T10:15:47;6.80;;;2.72;;
47251;SDS011;32991;51.374;11.586;2023-07-08T10:18:25;5.43;;;2.70;;
47251;SDS011;32991;51.374;11.586;2023-07-08T10:20:57;5.30;;;2.75;;
47251;SDS011;32991;51.374;11.586;2023-07-08T10:23:39;5.18;;;2.30;;
47251;SDS011;32991;51.374;11.586;2023-07-08T10:26:31;3.33;;;2.80;;
47251;SDS011;32991;51.374;11.586;2023-07-08T10:31:31;4.72;;;2.60;;
47251;SDS011;32991;51.374;11.586;2023-07-08T10:34:10;4.25;;;2.95;;
47251;SDS011;32991;51.374;11.586;2023-07-08T10:40:03;5.28;;;2.95;;
47251;SDS011;32991;51.374;11.586;2023-07-08T10:42:48;3.58;;;2.60;;
47251;SDS011;32991;51.374;11.586;2023-07-08T10:45:23;3.10;;;2.80;;
47251;SDS011;32991;51.374;11.586;2023-07-08T10:50:45;3.00;;;2.80;;
47251;SDS011;32991;51.374;11.586;2023-07-08T10:53:24;3.53;;;2.78;;
47251;SDS011;32991;51.374;11.586;2023-07-08T10:55:55;3.67;;;2.70;;
47251;SDS011;32991;51.374;11.586;2023-07-08T11:01:32;7.13;;;3.42;;
47251;SDS011;32991;51.374;11.586;2023-07-08T11:04:07;3.10;;;2.70;;
47251;SDS011;32991;51.374;11.586;2023-07-08T11:06:56;4.22;;;2.92;;
47251;SDS011;32991;51.374;11.586;2023-07-08T11:09:37;3.90;;;2.72;;
47251;SDS011;32991;51.374;11.586;2023-07-08T11:12:12;4.50;;;2.70;;
47251;SDS011;32991;51.374;11.586;2023-07-08T11:14:48;3.85;;;2.90;;
47251;SDS011;32991;51.374;11.586;2023-07-08T11:17:21;5.60;;;3.00;;
47251;SDS011;32991;51.374;11.586;2023-07-08T11:19:57;3.45;;;3.03;;
47251;SDS011;32991;51.374;11.586;2023-07-08T11:22:43;6.30;;;3.50;;
47251;SDS011;32991;51.374;11.586;2023-07-08T11:25:18;3.10;;;2.80;;
47251;SDS011;32991;51.374;11.586;2023-07-08T11:27:47;4.67;;;2.80;;
47251;SDS011;32991;51.374;11.586;2023-07-08T11:30:16;4.25;;;2.80;;
47251;SDS011;32991;51.374;11.586;2023-07-08T11:32:47;3.47;;;2.90;;
47251;SDS011;32991;51.374;11.586;2023-07-08T11:35:17;3.90;;;3.13;;
47251;SDS011;32991;51.374;11.586;2023-07-08T11:37:47;2.85;;;2.63;;
47251;SDS011;32991;51.374;11.586;2023-07-08T11:40:18;2.60;;;2.40;;
47251;SDS011;32991;51.374;11.586;2023-07-08T11:42:48;3.97;;;2.80;;
47251;SDS011;32991;51.374;11.586;2023-07-08T11:45:27;4.93;;;2.85;;
47251;SDS011;32991;51.374;11.586;2023-07-08T11:50:44;2.95;;;2.75;;
47251;SDS011;32991;51.374;11.586;2023-07-08T11:55:58;5.07;;;3.10;;
47251;SDS011;32991;51.374;11.586;2023-07-08T11:58:27;3.72;;;2.80;;
47251;SDS011;32991;51.374;11.586;2023-07-08T12:04:16;3.47;;;3.17;;
47251;SDS011;32991;51.374;11.586;2023-07-08T12:08:54;4.47;;;2.70;;
47251;SDS011;32991;51.374;11.586;2023-07-08T12:11:35;5.05;;;3.30;;
47251;SDS011;32991;51.374;11.586;2023-07-08T12:14:03;4.32;;;2.83;;
47251;SDS011;32991;51.374;11.586;2023-07-08T12:16:31;4.53;;;2.85;;
47251;SDS011;32991;51.374;11.586;2023-07-08T12:18:58;3.53;;;2.90;;
47251;SDS011;32991;51.374;11.586;2023-07-08T12:21:26;4.45;;;3.03;;
47251;SDS011;32991;51.374;11.586;2023-07-08T12:23:53;3.15;;;2.90;;
47251;SDS011;32991;51.374;11.586;2023-07-08T12:26:21;6.63;;;3.10;;
47251;SDS011;32991;51.374;11.586;2023-07-08T12:28:49;7.40;;;3.42;;
47251;SDS011;32991;51.374;11.586;2023-07-08T12:31:16;3.53;;;3.10;;
47251;SDS011;32991;51.374;11.586;2023-07-08T12:33:45;4.80;;;2.92;;
47251;SDS011;32991;51.374;11.586;2023-07-08T12:36:18;3.17;;;2.85;;
47251;SDS011;32991;51.374;11.586;2023-07-08T12:38:47;3.65;;;2.80;;
47251;SDS011;32991;51.374;11.586;2023-07-08T12:43:45;3.13;;;2.83;;
47251;SDS011;32991;51.374;11.586;2023-07-08T12:46:13;3.88;;;3.35;;
47251;SDS011;32991;51.374;11.586;2023-07-08T12:48:41;5.50;;;3.08;;
47251;SDS011;32991;51.374;11.586;2023-07-08T12:51:14;3.38;;;3.08;;
47251;SDS011;32991;51.374;11.586;2023-07-08T12:53:43;5.28;;;3.00;;
47251;SDS011;32991;51.374;11.586;2023-07-08T12:56:10;3.28;;;2.80;;
47251;SDS011;32991;51.374;11.586;2023-07-08T12:58:38;4.32;;;3.30;;
47251;SDS011;32991;51.374;11.586;2023-07-08T13:01:07;3.72;;;3.03;;
47251;SDS011;32991;51.374;11.586;2023-07-08T13:03:37;5.03;;;2.90;;
47251;SDS011;32991;51.374;11.586;2023-07-08T13:06:07;5.85;;;3.10;;
47251;SDS011;32991;51.374;11.586;2023-07-08T13:08:36;6.22;;;2.70;;
47251;SDS011;32991;51.374;11.586;2023-07-08T13:11:04;4.78;;;3.53;;
47251;SDS011;32991;51.374;11.586;2023-07-08T13:13:39;4.72;;;2.92;;
47251;SDS011;32991;51.374;11.586;2023-07-08T13:16:19;5.35;;;3.22;;
47251;SDS011;32991;51.374;11.586;2023-07-08T13:18:46;4.10;;;3.40;;
47251;SDS011;32991;51.374;11.586;2023-07-08T13:21:13;3.85;;;3.20;;
47251;SDS011;32991;51.374;11.586;2023-07-08T13:23:41;4.38;;;3.50;;
47251;SDS011;32991;51.374;11.586;2023-07-08T13:26:12;6.93;;;3.60;;
47251;SDS011;32991;51.374;11.586;2023-07-08T13:28:39;6.72;;;3.67;;
47251;SDS011;32991;51.374;11.586;2023-07-08T13:31:16;4.22;;;3.35;;
47251;SDS011;32991;51.374;11.586;2023-07-08T13:33:51;5.10;;;3.97;;
47251;SDS011;32991;51.374;11.586;2023-07-08T13:36:21;3.67;;;3.08;;
47251;SDS011;32991;51.374;11.586;2023-07-08T13:38:58;3.20;;;2.80;;
47251;SDS011;32991;51.374;11.586;2023-07-08T13:41:26;4.57;;;3.63;;
47251;SDS011;32991;51.374;11.586;2023-07-08T13:43:52;4.07;;;3.55;;
47251;SDS011;32991;51.374;11.586;2023-07-08T13:46:30;7.15;;;3.50;;
47251;SDS011;32991;51.374;11.586;2023-07-08T13:49:00;5.35;;;3.95;;
47251;SDS011;32991;51.374;11.586;2023-07-08T13:51:31;5.00;;;3.63;;
47251;SDS011;32991;51.374;11.586;2023-07-08T13:53:59;5.50;;;3.70;;
47251;SDS011;32991;51.374;11.586;2023-07-08T13:56:28;5.10;;;3.65;;
47251;SDS011;32991;51.374;11.586;2023-07-08T13:59:17;6.00;;;3.85;;
47251;SDS011;32991;51.374;11.586;2023-07-08T14:01:45;4.55;;;3.28;;
47251;SDS011;32991;51.374;11.586;2023-07-08T14:04:16;4.13;;;3.65;;
47251;SDS011;32991;51.374;11.586;2023-07-08T14:06:44;4.65;;;3.28;;
47251;SDS011;32991;51.374;11.586;2023-07-08T14:11:41;4.50;;;3.65;;
47251;SDS011;32991;51.374;11.586;2023-07-08T14:14:09;5.70;;;3.22;;
47251;SDS011;32991;51.374;11.586;2023-07-08T14:16:36;3.97;;;3.58;;
47251;SDS011;32991;51.374;11.586;2023-07-08T14:19:06;4.43;;;3.63;;
47251;SDS011;32991;51.374;11.586;2023-07-08T14:21:34;4.20;;;3.20;;
47251;SDS011;32991;51.374;11.586;2023-07-08T14:24:01;5.53;;;3.80;;
47251;SDS011;32991;51.374;11.586;2023-07-08T14:26:28;6.95;;;3.53;;
47251;SDS011;32991;51.374;11.586;2023-07-08T14:28:55;6.15;;;3.80;;
47251;SDS011;32991;51.374;11.586;2023-07-08T14:31:22;4.18;;;3.50;;
47251;SDS011;32991;51.374;11.586;2023-07-08T14:34:02;5.20;;;3.78;;
47251;SDS011;32991;51.374;11.586;2023-07-08T14:36:30;3.65;;;3.25;;
47251;SDS011;32991;51.374;11.586;2023-07-08T14:38:57;7.43;;;3.38;;
47251;SDS011;32991;51.374;11.586;2023-07-08T14:41:24;3.30;;;3.00;;
47251;SDS011;32991;51.374;11.586;2023-07-08T14:43:51;5.13;;;3.63;;
47251;SDS011;32991;51.374;11.586;2023-07-08T14:46:17;6.30;;;3.50;;
47251;SDS011;32991;51.374;11.586;2023-07-08T14:48:44;4.20;;;3.40;;
47251;SDS011;32991;51.374;11.586;2023-07-08T14:51:11;7.03;;;3.50;;
47251;SDS011;32991;51.374;11.586;2023-07-08T14:53:37;5.55;;;3.47;;
47251;SDS011;32991;51.374;11.586;2023-07-08T14:56:06;4.68;;;3.10;;
47251;SDS011;32991;51.374;11.586;2023-07-08T14:58:40;3.42;;;3.10;;
47251;SDS011;32991;51.374;11.586;2023-07-08T15:01:19;5.38;;;3.30;;
47251;SDS011;32991;51.374;11.586;2023-07-08T15:03:47;4.43;;;3.20;;
47251;SDS011;32991;51.374;11.586;2023-07-08T15:06:13;4.13;;;3.40;;
47251;SDS011;32991;51.374;11.586;2023-07-08T15:08:40;4.45;;;3.50;;
47251;SDS011;32991;51.374;11.586;2023-07-08T15:11:11;5.82;;;3.55;;
47251;SDS011;32991;51.374;11.586;2023-07-08T15:13:38;3.60;;;3.30;;
47251;SDS011;32991;51.374;11.586;2023-07-08T15:16:07;3.80;;;3.50;;
47251;SDS011;32991;51.374;11.586;2023-07-08T15:18:37;7.88;;;3.72;;
47251;SDS011;32991;51.374;11.586;2023-07-08T15:21:04;5.07;;;3.45;;
47251;SDS011;32991;51.374;11.586;2023-07-08T15:23:30;4.57;;;3.28;;
47251;SDS011;32991;51.374;11.586;2023-07-08T15:25:57;6.35;;;3.65;;
47251;SDS011;32991;51.374;11.586;2023-07-08T15:28:35;3.47;;;3.17;;
47251;SDS011;32991;51.374;11.586;2023-07-08T15:31:23;4.10;;;3.70;;
47251;SDS011;32991;51.374;11.586;2023-07-08T15:33:52;4.93;;;3.65;;
47251;SDS011;32991;51.374;11.586;2023-07-08T15:36:18;4.78;;;3.70;;
47251;SDS011;32991;51.374;11.586;2023-07-08T15:38:45;4.18;;;3.60;;
47251;SDS011;32991;51.374;11.586;2023-07-08T15:41:24;4.57;;;3.60;;
47251;SDS011;32991;51.374;11.586;2023-07-08T15:43:52;3.83;;;3.28;;
47251;SDS011;32991;51.374;11.586;2023-07-08T15:46:19;6.00;;;3.63;;
47251;SDS011;32991;51.374;11.586;2023-07-08T15:48:48;6.15;;;3.38;;
47251;SDS011;32991;51.374;11.586;2023-07-08T15:51:16;4.90;;;3.28;;
47251;SDS011;32991;51.374;11.586;2023-07-08T15:53:44;3.45;;;3.13;;
47251;SDS011;32991;51.374;11.586;2023-07-08T15:56:11;4.30;;;3.72;;
47251;SDS011;32991;51.374;11.586;2023-07-08T15:58:40;4.95;;;3.70;;
47251;SDS011;32991;51.374;11.586;2023-07-08T16:01:07;6.20;;;3.95;;
47251;SDS011;32991;51.374;11.586;2023-07-08T16:03:48;3.97;;;3.38;;
47251;SDS011;32991;51.374;11.586;2023-07-08T16:06:16;3.83;;;3.40;;
47251;SDS011;32991;51.374;11.586;2023-07-08T16:08:43;3.83;;;3.40;;